Time;durP1;ratioP1;P1;durP2;ratioP2;P2;SDS_P1;SDS_P2;PMS_P1;PMS_P2;Temp;Humidity;BMP_temperature;BMP_pressure;BME280_temperature;BME280_humidity;BME280_pressure;Samples;Min_cycle;Max_cycle;Signal;HPM_P1;HPM_P2
2022/02/13 00:02:18;;;;;;;15.63;8.50;;;1.30;99.90;;;;;;5052607;28;20497;-55
2022/02/13 00:04:43;;;;;;;16.35;8.25;;;1.40;99.90;;;;;;5051229;28;20480;-55
2022/02/13 00:07:09;;;;;;;19.03;9.10;;;1.40;99.90;;;;;;5062263;28;20825;-55
2022/02/13 00:09:36;;;;;;;19.92;9.45;;;1.40;99.90;;;;;;5066321;28;20395;-56
2022/02/13 00:12:04;;;;;;;21.15;9.63;;;1.40;99.90;;;;;;5071933;28;20484;-55
2022/02/13 00:14:30;;;;;;;18.42;9.45;;;1.30;99.90;;;;;;5072352;28;20376;-55
2022/02/13 00:16:56;;;;;;;18.88;9.73;;;2.90;99.90;;;;;;5051593;28;20798;-55
2022/02/13 00:19:21;;;;;;;20.40;9.77;;;1.30;99.90;;;;;;5051876;28;20500;-55
2022/02/13 00:21:47;;;;;;;18.25;10.00;;;3.10;99.90;;;;;;5051124;28;20416;-55
2022/02/13 00:24:13;;;;;;;19.00;10.07;;;1.30;99.90;;;;;;5052635;28;20394;-55
2022/02/13 00:26:39;;;;;;;16.15;10.10;;;1.30;99.90;;;;;;5051182;28;20427;-55
2022/02/13 00:29:04;;;;;;;17.67;10.02;;;1.30;99.90;;;;;;5052092;28;20471;-55
2022/02/13 00:31:30;;;;;;;20.90;11.23;;;1.20;99.90;;;;;;5052203;28;20389;-55
2022/02/13 00:33:56;;;;;;;18.43;11.40;;;1.20;99.90;;;;;;5049999;28;20390;-55
2022/02/13 00:36:21;;;;;;;20.05;11.02;;;1.10;99.90;;;;;;5052078;28;20867;-55
2022/02/13 00:38:47;;;;;;;20.33;10.98;;;1.40;99.90;;;;;;5051320;28;20370;-55
2022/02/13 00:41:13;;;;;;;19.05;9.95;;;2.70;99.90;;;;;;5051804;28;20779;-55
2022/02/13 00:43:39;;;;;;;20.55;10.55;;;1.20;99.90;;;;;;5051141;28;20382;-56
2022/02/13 00:46:05;;;;;;;16.60;9.53;;;1.10;99.90;;;;;;5051899;28;20424;-55
2022/02/13 00:48:30;;;;;;;17.20;9.37;;;0.90;99.90;;;;;;5051860;28;20422;-55
2022/02/13 00:50:56;;;;;;;20.00;9.30;;;0.90;99.90;;;;;;5051406;28;20382;-55
2022/02/13 00:53:22;;;;;;;20.27;9.53;;;0.80;99.90;;;;;;5051785;28;20457;-55
2022/02/13 00:55:47;;;;;;;17.43;9.50;;;0.80;99.90;;;;;;5051102;28;20531;-55
2022/02/13 00:58:13;;;;;;;18.73;10.38;;;0.80;99.90;;;;;;5032912;28;20382;-55
2022/02/13 01:00:39;;;;;;;26.13;13.20;;;0.90;99.90;;;;;;5049464;28;20400;-55
2022/02/13 01:03:04;;;;;;;25.47;12.10;;;1.00;99.90;;;;;;5051783;28;20425;-55
2022/02/13 01:05:30;;;;;;;20.65;10.30;;;1.00;99.90;;;;;;5051395;28;20912;-55
2022/02/13 01:07:55;;;;;;;16.67;9.70;;;1.00;99.90;;;;;;5050623;28;20431;-55
2022/02/13 01:10:21;;;;;;;19.27;10.30;;;1.00;99.90;;;;;;5051326;28;20420;-55
2022/02/13 01:12:47;;;;;;;16.70;9.50;;;0.90;99.90;;;;;;5050322;28;20381;-55
2022/02/13 01:15:13;;;;;;;17.77;9.33;;;0.90;99.90;;;;;;5050714;28;20386;-55
2022/02/13 01:17:38;;;;;;;17.50;9.67;;;0.90;99.90;;;;;;5050099;28;20696;-55
2022/02/13 01:20:04;;;;;;;15.85;9.07;;;0.70;99.90;;;;;;5051226;28;20871;-55
2022/02/13 01:22:30;;;;;;;15.07;8.80;;;0.70;99.90;;;;;;5033176;28;20748;-55
2022/02/13 01:24:56;;;;;;;15.10;8.52;;;0.70;99.90;;;;;;5049978;28;20526;-55
2022/02/13 01:27:21;;;;;;;16.00;9.00;;;0.80;99.90;;;;;;5051114;28;20373;-55
2022/02/13 01:29:47;;;;;;;18.87;9.40;;;0.70;99.90;;;;;;5050229;28;20731;-55
2022/02/13 01:32:13;;;;;;;14.68;8.13;;;0.80;99.90;;;;;;5050936;28;20472;-55
2022/02/13 01:34:38;;;;;;;17.27;8.82;;;0.80;99.90;;;;;;5050433;28;20878;-55
2022/02/13 01:37:04;;;;;;;14.83;8.40;;;0.90;99.90;;;;;;5050514;28;20721;-55
2022/02/13 01:39:31;;;;;;;18.87;9.93;;;1.00;99.90;;;;;;5050894;28;20950;-55
2022/02/13 01:42:03;;;;;;;15.90;9.00;;;1.10;99.90;;;;;;5050043;28;20503;-55
2022/02/13 01:44:32;;;;;;;15.20;9.18;;;1.00;99.90;;;;;;5050718;28;20412;-55
2022/02/13 01:46:59;;;;;;;17.60;9.10;;;1.00;99.90;;;;;;5049636;28;20386;-55
2022/02/13 01:49:25;;;;;;;18.75;9.85;;;1.00;99.90;;;;;;5050557;28;20392;-55
2022/02/13 01:51:52;;;;;;;15.52;8.80;;;1.10;99.90;;;;;;5049953;28;20378;-55
2022/02/13 01:54:18;;;;;;;16.57;9.27;;;1.10;99.90;;;;;;5050499;28;20391;-55
2022/02/13 01:56:44;;;;;;;14.80;8.80;;;1.10;99.90;;;;;;5049408;28;20373;-55
2022/02/13 01:59:11;;;;;;;17.17;9.00;;;1.90;99.90;;;;;;5050377;28;20389;-55
2022/02/13 02:01:36;;;;;;;15.98;9.35;;;1.10;99.90;;;;;;5049434;28;20950;-56
2022/02/13 02:04:03;;;;;;;18.17;9.57;;;1.10;99.90;;;;;;5050391;28;20477;-55
2022/02/13 02:06:28;;;;;;;17.27;9.57;;;1.10;99.90;;;;;;5050180;28;20894;-55
2022/02/13 02:08:55;;;;;;;19.42;11.10;;;1.10;99.90;;;;;;5048805;28;20370;-55
2022/02/13 02:11:20;;;;;;;20.50;11.93;;;1.10;99.90;;;;;;5050463;28;20401;-55
2022/02/13 02:13:46;;;;;;;20.93;10.47;;;2.50;99.90;;;;;;5049200;28;20381;-55
2022/02/13 02:16:12;;;;;;;20.43;12.20;;;2.70;99.90;;;;;;5049865;28;20786;-55
2022/02/13 02:18:38;;;;;;;17.80;10.70;;;1.20;99.90;;;;;;5030911;28;20405;-56
2022/02/13 02:21:04;;;;;;;20.38;10.73;;;1.20;99.90;;;;;;5049780;28;20458;-55
2022/02/13 02:23:32;;;;;;;19.20;11.27;;;1.10;99.90;;;;;;5050118;28;20870;-55
2022/02/13 02:26:03;;;;;;;18.17;10.73;;;1.00;99.90;;;;;;5049242;28;20386;-55
2022/02/13 02:28:29;;;;;;;20.23;11.67;;;0.90;99.90;;;;;;5050066;28;20401;-55
2022/02/13 02:30:55;;;;;;;19.17;11.60;;;2.70;99.90;;;;;;5049089;28;21043;-55
2022/02/13 02:33:20;;;;;;;19.17;10.33;;;0.80;99.90;;;;;;5032092;28;20464;-55
2022/02/13 02:35:49;;;;;;;19.95;11.38;;;0.90;99.90;;;;;;5049156;28;20385;-55
2022/02/13 02:38:15;;;;;;;19.45;11.10;;;1.70;99.90;;;;;;5049669;28;20394;-55
2022/02/13 02:40:42;;;;;;;20.75;11.05;;;0.70;99.90;;;;;;5048729;28;20431;-55
2022/02/13 02:43:08;;;;;;;22.67;11.80;;;1.70;99.90;;;;;;5049761;28;20374;-55
2022/02/13 02:45:34;;;;;;;19.17;10.87;;;0.70;99.90;;;;;;5049774;28;20389;-55
2022/02/13 02:48:00;;;;;;;18.63;11.20;;;0.80;99.90;;;;;;5048945;28;20389;-55
2022/02/13 02:50:26;;;;;;;22.73;12.27;;;0.80;99.90;;;;;;5049784;28;20401;-55
2022/02/13 02:52:51;;;;;;;20.93;11.10;;;0.70;99.90;;;;;;5048760;28;20381;-55
2022/02/13 02:55:17;;;;;;;18.53;11.53;;;0.70;99.90;;;;;;5049546;28;20871;-54
2022/02/13 02:57:43;;;;;;;17.67;11.43;;;1.20;99.90;;;;;;5048832;28;20381;-55
2022/02/13 03:00:10;;;;;;;17.90;10.77;;;0.70;99.90;;;;;;5049353;28;20488;-54
2022/02/13 03:02:36;;;;;;;21.40;11.65;;;0.70;99.90;;;;;;5049117;28;20401;-56
2022/02/13 03:05:03;;;;;;;19.30;11.85;;;0.70;99.90;;;;;;5049098;28;20857;-55
2022/02/13 03:07:30;;;;;;;18.05;11.57;;;0.60;99.90;;;;;;5049419;28;20381;-55
2022/02/13 03:09:57;;;;;;;20.93;11.70;;;1.30;99.90;;;;;;5048705;28;20389;-55
2022/02/13 03:12:23;;;;;;;17.92;11.60;;;0.60;99.90;;;;;;5049290;28;20394;-54
2022/02/13 03:14:49;;;;;;;18.03;11.07;;;0.50;99.90;;;;;;5048840;28;20904;-54
2022/02/13 03:17:15;;;;;;;20.35;11.60;;;0.60;99.90;;;;;;5049238;28;20455;-55
2022/02/13 03:19:40;;;;;;;19.20;11.00;;;0.70;99.90;;;;;;5048702;28;20377;-54
2022/02/13 03:22:06;;;;;;;18.03;11.30;;;0.70;99.90;;;;;;5051070;28;20496;-55
2022/02/13 03:24:33;;;;;;;20.85;11.50;;;0.70;99.90;;;;;;5053651;28;20446;-55
2022/02/13 03:26:59;;;;;;;22.23;11.60;;;0.70;99.90;;;;;;5052315;28;20464;-54
2022/02/13 03:29:24;;;;;;;19.40;11.13;;;0.70;99.90;;;;;;5053115;28;20496;-55
2022/02/13 03:31:50;;;;;;;18.80;11.50;;;0.70;99.90;;;;;;5052434;28;20498;-55
2022/02/13 03:34:16;;;;;;;19.40;11.38;;;0.70;99.90;;;;;;5053147;28;20411;-55
2022/02/13 03:36:41;;;;;;;20.75;12.10;;;1.30;99.90;;;;;;5052248;28;20380;-55
2022/02/13 03:39:07;;;;;;;19.83;10.97;;;0.60;99.90;;;;;;5053101;28;20878;-55
2022/02/13 03:41:33;;;;;;;18.90;11.67;;;0.70;99.90;;;;;;5053075;28;20466;-55
2022/02/13 03:43:59;;;;;;;20.02;11.20;;;0.60;99.90;;;;;;5052415;28;20404;-55
2022/02/13 03:46:25;;;;;;;20.73;11.77;;;0.50;99.90;;;;;;5053053;28;20370;-54
2022/02/13 03:48:51;;;;;;;18.93;11.40;;;0.50;99.90;;;;;;5052208;28;20743;-54
2022/02/13 03:51:17;;;;;;;20.30;11.20;;;0.50;99.90;;;;;;5052832;28;20406;-55
2022/02/13 03:53:42;;;;;;;18.52;11.38;;;0.40;99.90;;;;;;5051957;28;20396;-55
2022/02/13 03:56:08;;;;;;;21.15;11.95;;;0.50;99.90;;;;;;5052381;28;20393;-55
2022/02/13 03:58:34;;;;;;;21.43;11.60;;;0.50;99.90;;;;;;5052831;28;20369;-55
2022/02/13 04:01:00;;;;;;;22.02;12.30;;;0.80;99.90;;;;;;5051791;28;20404;-55
2022/02/13 04:03:27;;;;;;;23.27;11.50;;;0.60;99.90;;;;;;5059350;28;20883;-55
2022/02/13 04:05:54;;;;;;;20.73;11.57;;;0.60;99.90;;;;;;5071704;28;20387;-55
2022/02/13 04:08:24;;;;;;;19.13;11.57;;;0.60;99.90;;;;;;5066982;28;20389;-55
2022/02/13 04:10:50;;;;;;;22.00;12.40;;;0.50;99.90;;;;;;5071910;28;20530;-55
2022/02/13 04:13:16;;;;;;;22.58;12.50;;;2.00;99.90;;;;;;5058006;28;20378;-55
2022/02/13 04:15:42;;;;;;;20.23;11.73;;;0.60;99.90;;;;;;5051757;28;20416;-55
2022/02/13 04:18:13;;;;;;;19.90;11.27;;;0.60;99.90;;;;;;5052199;28;20474;-54
2022/02/13 04:20:39;;;;;;;19.30;10.80;;;0.70;99.90;;;;;;5052140;28;20385;-56
2022/02/13 04:23:04;;;;;;;20.77;11.97;;;0.70;99.90;;;;;;5052005;28;20821;-55
2022/02/13 04:25:37;;;;;;;20.33;11.50;;;0.80;99.90;;;;;;5051809;28;20402;-54
2022/02/13 04:28:03;;;;;;;19.70;11.32;;;0.80;99.90;;;;;;5051576;28;20480;-54
2022/02/13 04:30:29;;;;;;;20.75;11.43;;;0.70;99.90;;;;;;5052003;28;20393;-55
2022/02/13 04:32:56;;;;;;;18.38;11.15;;;0.70;99.90;;;;;;5068481;28;20472;-55
2022/02/13 04:35:23;;;;;;;20.00;11.60;;;0.80;99.90;;;;;;5071843;28;20505;-55
2022/02/13 04:37:52;;;;;;;20.67;11.10;;;1.80;99.90;;;;;;5070688;28;20380;-55
2022/02/13 04:40:18;;;;;;;19.50;11.30;;;0.80;99.90;;;;;;5072053;28;20376;-55
2022/02/13 04:42:45;;;;;;;20.90;11.85;;;0.70;99.90;;;;;;5071178;28;20454;-55
2022/02/13 04:45:10;;;;;;;18.97;11.17;;;0.70;99.90;;;;;;5071629;28;20376;-55
2022/02/13 04:47:36;;;;;;;20.23;11.30;;;0.70;99.90;;;;;;5072006;28;20452;-55
2022/02/13 04:50:02;;;;;;;19.90;11.55;;;0.60;99.90;;;;;;5070798;28;20411;-55
2022/02/13 04:52:29;;;;;;;17.60;10.48;;;0.60;99.90;;;;;;5071703;28;20390;-55
2022/02/13 04:54:54;;;;;;;20.77;11.80;;;1.90;99.90;;;;;;5070992;28;20387;-55
2022/02/13 04:57:20;;;;;;;18.33;10.70;;;0.70;99.90;;;;;;5053854;28;20388;-55
2022/02/13 04:59:46;;;;;;;19.42;11.00;;;2.70;99.90;;;;;;5070685;28;20398;-55
2022/02/13 05:02:12;;;;;;;21.20;10.80;;;0.50;99.90;;;;;;5071053;28;20411;-55
2022/02/13 05:04:37;;;;;;;18.80;10.10;;;1.00;99.90;;;;;;5071184;28;20380;-55
2022/02/13 05:07:05;;;;;;;20.43;10.33;;;0.40;99.90;;;;;;5062434;28;20386;-55
2022/02/13 05:09:31;;;;;;;18.77;10.07;;;0.40;99.90;;;;;;5051456;28;20472;-54
2022/02/13 05:11:57;;;;;;;19.13;10.68;;;0.40;99.90;;;;;;5064750;28;20419;-54
2022/02/13 05:14:24;;;;;;;17.67;9.55;;;0.40;99.90;;;;;;5071391;28;20741;-55
2022/02/13 05:16:50;;;;;;;16.95;9.43;;;0.50;99.90;;;;;;5070353;28;20384;-55
2022/02/13 05:19:16;;;;;;;16.02;9.77;;;0.60;99.90;;;;;;5052368;28;20695;-55
2022/02/13 05:21:42;;;;;;;17.95;8.80;;;0.70;99.90;;;;;;5050373;28;20470;-56
2022/02/13 05:24:08;;;;;;;16.80;8.27;;;0.80;99.90;;;;;;5051335;28;20400;-55
2022/02/13 05:26:35;;;;;;;17.20;8.43;;;0.90;99.90;;;;;;5050830;28;20863;-55
2022/02/13 05:29:01;;;;;;;16.10;8.90;;;1.00;99.90;;;;;;5049977;28;20818;-55
2022/02/13 05:31:30;;;;;;;18.88;8.57;;;1.10;99.90;;;;;;5050755;28;20972;-55
2022/02/13 05:33:58;;;;;;;16.08;8.20;;;2.40;99.90;;;;;;5050141;28;20374;-55
2022/02/13 05:36:24;;;;;;;14.63;7.47;;;1.10;99.90;;;;;;5053686;28;20866;-55
2022/02/13 05:38:50;;;;;;;15.18;8.25;;;1.20;99.90;;;;;;5070038;28;20368;-55
2022/02/13 05:41:16;;;;;;;15.07;7.80;;;1.20;99.90;;;;;;5052575;28;20472;-55
2022/02/13 05:43:42;;;;;;;16.02;7.85;;;1.40;99.90;;;;;;5069603;28;20388;-55
2022/02/13 05:46:07;;;;;;;15.27;7.85;;;1.60;99.90;;;;;;5070123;28;20384;-55
2022/02/13 05:48:34;;;;;;;14.45;7.80;;;1.70;99.90;;;;;;5070300;28;20391;-55
2022/02/13 05:51:00;;;;;;;14.10;7.00;;;3.80;99.90;;;;;;5069869;28;20498;-55
2022/02/13 05:53:26;;;;;;;14.32;7.18;;;3.30;99.90;;;;;;5070803;28;20703;-56
2022/02/13 05:55:52;;;;;;;15.17;7.60;;;2.10;99.90;;;;;;5069760;28;20388;-56
2022/02/13 05:58:17;;;;;;;16.17;7.50;;;3.90;99.90;;;;;;5069201;28;20398;-56
2022/02/13 06:00:43;;;;;;;13.18;6.88;;;2.30;99.90;;;;;;5053156;28;20472;-56
2022/02/13 06:03:09;;;;;;;13.57;7.60;;;2.30;99.90;;;;;;5064461;28;20824;-56
2022/02/13 06:05:36;;;;;;;16.50;7.57;;;2.40;99.90;;;;;;5069910;28;20392;-56
2022/02/13 06:08:01;;;;;;;14.10;7.60;;;2.80;99.90;;;;;;5069453;28;20438;-55
2022/02/13 06:10:27;;;;;;;17.60;8.65;;;2.40;99.90;;;;;;5069987;28;20379;-55
2022/02/13 06:12:53;;;;;;;17.20;8.40;;;2.30;99.90;;;;;;5069451;28;20822;-55
2022/02/13 06:15:18;;;;;;;18.38;9.07;;;2.10;99.90;;;;;;5070178;28;20861;-55
2022/02/13 06:17:44;;;;;;;17.05;9.88;;;1.90;99.90;;;;;;5068951;28;20951;-55
2022/02/13 06:20:10;;;;;;;15.60;9.50;;;1.60;99.90;;;;;;5052138;28;20907;-55
2022/02/13 06:22:36;;;;;;;19.65;10.40;;;1.40;99.90;;;;;;5069736;28;20427;-54
2022/02/13 06:25:05;;;;;;;18.70;10.57;;;1.20;99.90;;;;;;5068627;28;20420;-54
2022/02/13 06:27:30;;;;;;;21.30;10.82;;;1.10;99.90;;;;;;5058421;28;20403;-54
2022/02/13 06:29:56;;;;;;;19.95;10.82;;;1.00;99.90;;;;;;5053938;28;20397;-54
2022/02/13 06:32:21;;;;;;;18.90;10.30;;;0.80;99.90;;;;;;5049296;28;20400;-54
2022/02/13 06:34:47;;;;;;;19.30;10.57;;;2.00;99.90;;;;;;5044667;28;20494;-54
2022/02/13 06:37:13;;;;;;;16.67;10.23;;;0.60;99.90;;;;;;5049215;28;20751;-54
2022/02/13 06:39:39;;;;;;;17.10;10.50;;;0.60;99.90;;;;;;5050393;28;20773;-54
2022/02/13 06:42:05;;;;;;;18.00;10.80;;;0.80;99.90;;;;;;5048537;28;20759;-54
2022/02/13 06:44:30;;;;;;;17.30;10.30;;;0.60;99.90;;;;;;5049253;28;20817;-54
2022/02/13 06:46:56;;;;;;;18.87;10.67;;;0.70;99.90;;;;;;5047399;28;20397;-54
2022/02/13 06:49:22;;;;;;;17.35;10.25;;;0.70;99.90;;;;;;5048501;28;20877;-55
2022/02/13 06:51:47;;;;;;;18.90;11.63;;;0.70;99.90;;;;;;5047828;28;20396;-54
2022/02/13 06:54:13;;;;;;;18.27;10.50;;;0.70;99.90;;;;;;5048355;28;20408;-54
2022/02/13 06:56:38;;;;;;;17.63;10.13;;;0.70;99.90;;;;;;5047465;28;20393;-54
2022/02/13 06:59:04;;;;;;;19.53;10.77;;;0.70;99.90;;;;;;5030225;28;20374;-54
2022/02/13 07:01:30;;;;;;;18.02;10.10;;;0.80;99.90;;;;;;5047815;28;20413;-54
2022/02/13 07:03:56;;;;;;;16.95;10.85;;;0.80;99.90;;;;;;5047767;28;20436;-54
2022/02/13 07:06:21;;;;;;;16.10;9.73;;;2.90;99.90;;;;;;5032082;28;20798;-55
2022/02/13 07:08:47;;;;;;;20.67;11.10;;;0.90;99.90;;;;;;5049804;28;20459;-55
2022/02/13 07:11:13;;;;;;;18.58;9.55;;;1.00;99.90;;;;;;5049472;28;20424;-55
2022/02/13 07:13:38;;;;;;;15.30;9.33;;;1.20;99.90;;;;;;5049186;28;20487;-54
2022/02/13 07:16:05;;;;;;;18.13;9.90;;;1.20;99.90;;;;;;5049473;28;20390;-54
2022/02/13 07:18:30;;;;;;;19.63;10.13;;;1.30;99.90;;;;;;5050537;28;20409;-55
2022/02/13 07:20:56;;;;;;;15.70;9.80;;;1.40;99.90;;;;;;5053006;28;20407;-55
2022/02/13 07:23:22;;;;;;;18.65;9.65;;;1.60;99.90;;;;;;5052124;28;21058;-55
2022/02/13 07:25:48;;;;;;;16.60;9.40;;;1.70;99.90;;;;;;5055644;28;20408;-55
2022/02/13 07:30:58;;;;;;;15.98;9.48;;;3.20;99.90;;;;;;5054820;28;20428;-57
2022/02/13 07:33:24;;;;;;;18.52;9.20;;;2.50;99.90;;;;;;5059942;28;20760;-58
2022/02/13 07:35:49;;;;;;;14.60;8.00;;;3.20;99.90;;;;;;5061689;28;20900;-56
2022/02/13 07:38:15;;;;;;;16.00;7.83;;;4.60;99.90;;;;;;5054533;28;20411;-56
2022/02/13 07:40:41;;;;;;;14.38;8.07;;;6.20;99.90;;;;;;5055370;28;20747;-57
2022/02/13 07:43:06;;;;;;;17.63;8.87;;;8.20;99.90;;;;;;5059728;28;20443;-57
2022/02/13 07:45:33;;;;;;;15.75;8.50;;;9.70;99.90;;;;;;5047781;28;21092;-55
2022/02/13 07:47:58;;;;;;;12.48;8.98;;;10.70;99.60;;;;;;5059206;28;20515;-56
2022/02/13 07:50:24;;;;;;;14.70;10.00;;;11.50;95.90;;;;;;5062495;28;20538;-55
2022/02/13 07:52:50;;;;;;;13.33;8.40;;;11.90;93.90;;;;;;5059349;28;20464;-55
2022/02/13 07:55:17;;;;;;;16.88;14.07;;;12.60;91.70;;;;;;5055407;28;20400;-58
2022/02/13 07:57:43;;;;;;;21.02;19.02;;;12.90;90.10;;;;;;5059787;28;20426;-58
2022/02/13 08:00:09;;;;;;;20.02;18.13;;;13.30;87.70;;;;;;5064279;28;20411;-56
2022/02/13 08:02:36;;;;;;;17.80;15.80;;;12.90;85.70;;;;;;5054213;28;20468;-55
2022/02/13 08:05:03;;;;;;;16.80;15.00;;;12.50;85.90;;;;;;5057856;28;20404;-55
2022/02/13 08:07:28;;;;;;;18.00;16.20;;;13.10;85.70;;;;;;5058046;28;20865;-56
2022/02/13 08:09:54;;;;;;;18.60;16.70;;;13.50;84.00;;;;;;5059369;28;20396;-56
2022/02/13 08:12:20;;;;;;;18.30;16.42;;;13.80;81.70;;;;;;5072226;28;21064;-56
2022/02/13 08:14:45;;;;;;;17.70;15.80;;;13.20;79.50;;;;;;5064462;28;20859;-56
2022/02/13 08:17:11;;;;;;;17.27;15.47;;;12.50;80.50;;;;;;5061927;28;20402;-56
2022/02/13 08:19:38;;;;;;;16.80;13.98;;;11.50;82.60;;;;;;5059123;28;20906;-58
2022/02/13 08:22:04;;;;;;;16.77;12.20;;;10.50;86.50;;;;;;5057288;28;20401;-55
2022/02/13 08:24:31;;;;;;;16.17;12.80;;;10.50;89.50;;;;;;5058903;28;20490;-59
2022/02/13 08:26:56;;;;;;;15.95;12.32;;;11.30;90.10;;;;;;5061011;28;20492;-56
2022/02/13 08:29:22;;;;;;;16.50;13.60;;;12.90;85.60;;;;;;5052522;28;20609;-56
2022/02/13 08:31:48;;;;;;;13.20;8.35;;;13.90;83.10;;;;;;5055905;28;20861;-58
2022/02/13 08:34:13;;;;;;;18.53;16.47;;;14.70;79.80;;;;;;5061751;28;20405;-57
2022/02/13 08:36:39;;;;;;;18.40;16.60;;;15.30;78.00;;;;;;5060355;28;20383;-56
2022/02/13 08:39:05;;;;;;;19.17;17.23;;;15.50;77.00;;;;;;5054250;28;20405;-56
2022/02/13 08:41:31;;;;;;;14.27;10.23;;;15.60;76.80;;;;;;5062818;28;20407;-57
2022/02/13 08:43:57;;;;;;;17.02;15.20;;;16.30;78.20;;;;;;5062102;28;20399;-56
2022/02/13 08:46:23;;;;;;;14.70;10.75;;;17.20;72.00;;;;;;5058075;28;20739;-56
2022/02/13 08:48:49;;;;;;;15.00;11.07;;;18.20;64.60;;;;;;5036967;28;20877;-56
2022/02/13 08:51:15;;;;;;;13.33;8.30;;;18.30;64.40;;;;;;5057580;28;20402;-56
2022/02/13 08:53:41;;;;;;;15.65;9.73;;;18.50;63.20;;;;;;5054006;28;20401;-57
2022/02/13 08:56:07;;;;;;;17.60;13.85;;;18.60;62.40;;;;;;5043071;28;20406;-56
2022/02/13 08:58:33;;;;;;;16.17;10.93;;;19.80;58.70;;;;;;5053782;28;20451;-59
2022/02/13 09:00:59;;;;;;;16.47;9.80;;;20.90;56.20;;;;;;5056511;28;20481;-58
2022/02/13 09:03:27;;;;;;;14.25;9.88;;;21.10;53.70;;;;;;5059632;28;20931;-55
2022/02/13 09:05:53;;;;;;;15.07;10.10;;;20.30;53.70;;;;;;5049512;28;20401;-55
2022/02/13 09:08:19;;;;;;;15.77;9.80;;;19.40;53.90;;;;;;5050825;28;20417;-55
2022/02/13 09:10:45;;;;;;;13.48;9.50;;;18.80;55.40;;;;;;5065002;28;20398;-56
2022/02/13 09:13:11;;;;;;;14.35;8.70;;;19.30;64.50;;;;;;5058356;28;20391;-56
2022/02/13 09:15:37;;;;;;;14.52;9.18;;;19.60;70.80;;;;;;5059888;28;20405;-56
2022/02/13 09:18:03;;;;;;;15.77;9.10;;;19.30;54.50;;;;;;5051677;28;20483;-56
2022/02/13 09:20:29;;;;;;;14.32;7.82;;;18.80;56.00;;;;;;5061180;28;20768;-57
2022/02/13 09:22:55;;;;;;;13.65;8.38;;;19.30;56.50;;;;;;5049517;28;20829;-57
2022/02/13 09:25:21;;;;;;;14.25;8.20;;;20.10;56.10;;;;;;5057231;28;20393;-56
2022/02/13 09:27:46;;;;;;;19.70;17.80;;;18.80;55.40;;;;;;5057744;28;20569;-57
2022/02/13 09:30:12;;;;;;;19.47;17.47;;;18.70;56.00;;;;;;5062736;28;20912;-56
2022/02/13 09:32:39;;;;;;;20.05;18.15;;;;;;;;;;5068192;28;20386;-56
2022/02/13 09:35:09;;;;;;;18.03;16.10;;;17.80;57.80;;;;;;5056089;28;20393;-56
2022/02/13 09:37:35;;;;;;;17.73;15.13;;;18.30;59.00;;;;;;5054619;28;20413;-57
2022/02/13 09:40:01;;;;;;;25.00;22.80;;;18.90;56.50;;;;;;5050750;28;20389;-57
2022/02/13 09:42:27;;;;;;;16.40;9.00;;;19.20;55.80;;;;;;5054684;28;20787;-57
2022/02/13 09:44:52;;;;;;;14.73;8.50;;;19.50;54.90;;;;;;5056678;28;20900;-57
2022/02/13 09:47:20;;;;;;;11.97;8.10;;;19.80;53.80;;;;;;5033589;28;20421;-56
2022/02/13 09:49:46;;;;;;;15.60;8.80;;;19.70;54.50;;;;;;5055143;28;20530;-58
2022/02/13 09:52:13;;;;;;;15.25;10.20;;;20.50;55.00;;;;;;5055106;28;20420;-57
2022/02/13 09:54:39;;;;;;;16.40;9.40;;;20.40;54.40;;;;;;5052311;28;20408;-57
2022/02/13 10:00:07;;;;;;;15.15;13.65;;;19.30;54.30;;;;;;5055306;28;20498;-58
2022/02/13 10:02:34;;;;;;;18.67;16.77;;;19.70;54.50;;;;;;5052978;28;20417;-57
2022/02/13 10:05:02;;;;;;;19.83;11.03;;;19.50;55.00;;;;;;5056909;28;20408;-57
2022/02/13 10:07:30;;;;;;;18.20;10.07;;;19.80;54.00;;;;;;5051727;28;20459;-57
2022/02/13 10:10:00;;;;;;;15.20;10.40;;;20.20;53.30;;;;;;5053509;28;20420;-57
2022/02/13 10:12:45;;;;;;;13.65;11.30;;;20.70;53.10;;;;;;5056286;28;20508;-57
2022/02/13 10:15:24;;;;;;;15.60;10.60;;;20.70;52.00;;;;;;5052882;28;20909;-57
2022/02/13 10:18:04;;;;;;;17.17;11.02;;;20.60;52.10;;;;;;5055686;28;20451;-57
2022/02/13 10:20:41;;;;;;;17.30;11.40;;;20.20;52.00;;;;;;5056050;28;20981;-57
2022/02/13 10:23:08;;;;;;;16.73;10.90;;;20.40;52.30;;;;;;5059973;28;20456;-57
2022/02/13 10:25:35;;;;;;;15.55;10.55;;;20.50;52.50;;;;;;5061400;28;20443;-57
2022/02/13 10:28:15;;;;;;;15.57;10.30;;;20.70;53.70;;;;;;5052964;28;20411;-57
2022/02/13 10:30:46;;;;;;;15.52;11.70;;;20.70;53.80;;;;;;5057244;28;21477;-57
2022/02/13 10:33:23;;;;;;;15.60;12.13;;;20.80;52.80;;;;;;5059735;28;20412;-58
2022/02/13 10:36:21;;;;;;;15.25;12.25;;;20.20;51.90;;;;;;5034570;28;20973;-57
2022/02/13 10:38:46;;;;;;;11.48;7.13;;;19.00;54.20;;;;;;5012635;28;20405;-58
2022/02/13 10:41:13;;;;;;;11.50;6.03;;;18.10;54.80;;;;;;5053663;28;20409;-57
2022/02/13 10:44:08;;;;;;;12.77;5.88;;;17.30;55.20;;;;;;5056751;28;20408;-57
2022/02/13 10:46:39;;;;;;;12.50;6.33;;;17.00;56.20;;;;;;5028092;28;20438;-57
2022/02/13 10:49:06;;;;;;;12.10;6.20;;;17.60;57.30;;;;;;5051129;28;20412;-57
2022/02/13 10:51:33;;;;;;;12.23;6.25;;;16.90;57.00;;;;;;5048507;28;20418;-57
2022/02/13 10:53:59;;;;;;;14.80;6.47;;;16.90;58.00;;;;;;5053457;28;20402;-57
2022/02/13 10:56:25;;;;;;;13.20;6.00;;;16.50;58.60;;;;;;5053455;28;20440;-57
2022/02/13 10:58:55;;;;;;;13.20;6.35;;;16.70;60.20;;;;;;5049352;28;20431;-57
2022/02/13 11:01:25;;;;;;;12.15;6.50;;;16.70;59.20;;;;;;5053988;28;20407;-57
2022/02/13 11:03:54;;;;;;;13.30;6.00;;;16.70;59.00;;;;;;5059529;28;20403;-57
2022/02/13 11:06:21;;;;;;;11.50;6.50;;;15.90;59.30;;;;;;5055526;28;20812;-59
2022/02/13 11:08:53;;;;;;;13.68;5.93;;;16.60;60.40;;;;;;5056113;28;20475;-59
2022/02/13 11:11:19;;;;;;;10.68;5.72;;;17.30;59.20;;;;;;5053859;28;20404;-58
2022/02/13 11:13:45;;;;;;;11.23;5.23;;;16.80;57.30;;;;;;5053755;28;20401;-58
2022/02/13 11:16:28;;;;;;;15.93;6.30;;;16.10;57.60;;;;;;5051236;28;20455;-58
2022/02/13 11:18:57;;;;;;;13.13;5.80;;;16.60;58.10;;;;;;5051520;28;20895;-58
2022/02/13 11:21:23;;;;;;;10.60;5.28;;;16.10;58.20;;;;;;5054971;28;20832;-59
2022/02/13 11:23:54;;;;;;;13.63;6.20;;;16.10;58.90;;;;;;5056062;28;20473;-59
2022/02/13 11:26:38;;;;;;;11.98;5.63;;;16.00;57.90;;;;;;5060643;28;20430;-58
2022/02/13 11:29:05;;;;;;;12.10;5.55;;;16.00;58.30;;;;;;5057451;28;20827;-58
2022/02/13 11:31:39;;;;;;;12.57;5.68;;;15.60;57.00;;;;;;5055161;28;20960;-58
2022/02/13 11:34:11;;;;;;;12.48;6.07;;;16.20;58.40;;;;;;5048999;28;20420;-58
2022/02/13 11:36:48;;;;;;;12.98;5.63;;;16.50;58.80;;;;;;5067308;28;20380;-58
2022/02/13 11:39:38;;;;;;;10.73;4.97;;;15.70;57.80;;;;;;5060282;28;20413;-58
2022/02/13 11:42:10;;;;;;;11.57;5.70;;;15.60;59.60;;;;;;5053448;28;20409;-58
2022/02/13 11:44:40;;;;;;;13.35;5.78;;;15.40;62.00;;;;;;5053958;28;20414;-58
2022/02/13 11:47:14;;;;;;;12.13;4.88;;;15.40;60.60;;;;;;5062161;28;20882;-58
2022/02/13 11:50:05;;;;;;;10.88;5.20;;;15.40;61.10;;;;;;5060756;28;20572;-58
2022/02/13 11:52:33;;;;;;;11.23;5.20;;;15.30;61.40;;;;;;5061698;28;20439;-57
2022/02/13 11:55:01;;;;;;;10.13;4.72;;;15.20;59.70;;;;;;5051014;28;20805;-55
2022/02/13 11:57:32;;;;;;;10.82;5.50;;;14.50;59.30;;;;;;5054000;28;20401;-54
2022/02/13 11:59:58;;;;;;;11.23;4.50;;;14.30;61.80;;;;;;5055120;28;20412;-55
2022/02/13 12:02:32;;;;;;;11.60;4.90;;;14.40;60.60;;;;;;5058565;28;20411;-55
2022/02/13 12:05:07;;;;;;;9.80;4.45;;;14.50;62.90;;;;;;5056112;28;20744;-54
2022/02/13 12:07:34;;;;;;;8.10;4.07;;;14.60;63.40;;;;;;5058263;28;20411;-54
2022/02/13 12:10:00;;;;;;;11.30;4.80;;;14.50;59.60;;;;;;5057326;28;20389;-55
2022/02/13 12:12:28;;;;;;;9.27;3.77;;;14.60;62.50;;;;;;5058563;28;20393;-54
2022/02/13 12:14:54;;;;;;;11.50;4.45;;;14.20;60.50;;;;;;5055339;28;20439;-54
2022/02/13 12:17:27;;;;;;;10.10;4.63;;;14.20;61.90;;;;;;5061791;28;20406;-55
2022/02/13 12:20:14;;;;;;;13.60;4.40;;;14.50;63.40;;;;;;5064910;28;20472;-54
2022/02/13 12:22:40;;;;;;;11.48;4.78;;;14.50;60.40;;;;;;5062864;28;20418;-54
2022/02/13 12:25:10;;;;;;;9.18;4.22;;;14.50;63.00;;;;;;5067420;28;20392;-54
2022/02/13 12:27:39;;;;;;;9.13;4.40;;;14.50;64.60;;;;;;5060384;28;20396;-54
2022/02/13 12:30:08;;;;;;;10.43;4.72;;;14.40;62.10;;;;;;5064196;28;20583;-54
2022/02/13 12:32:36;;;;;;;9.60;4.50;;;14.40;64.60;;;;;;5066201;28;20474;-55
2022/02/13 12:35:08;;;;;;;10.18;4.80;;;14.60;60.30;;;;;;5064078;28;20398;-54
2022/02/13 12:37:38;;;;;;;9.65;4.90;;;14.60;62.40;;;;;;5061669;28;20412;-54
2022/02/13 12:40:15;;;;;;;9.70;4.85;;;14.30;61.20;;;;;;5062046;28;20391;-55
2022/02/13 12:42:43;;;;;;;10.18;4.53;;;14.10;64.30;;;;;;5058116;28;20440;-59
2022/02/13 12:45:12;;;;;;;8.02;4.00;;;14.40;66.20;;;;;;5068314;28;20463;-58